Impacts TAF Board
For situational awareness. Not to be used for flight planning purposes.
IDs:

KMDW - Chicago/Midway Intl, IL, US

Issued at 1750 UTC 20 Sep 2018
Updated at 1957 UTC 20 Sep 2018
Potential Impact None Slight Moderate High
Time1953Z 20/20Z 20/21Z 20/22Z 20/23Z 21/00Z 21/01Z 21/02Z 21/03Z 21/04Z 21/05Z 21/06Z 21/07Z 21/08Z>>
Type OBS PRVL PRVL PRVL PRVL PRVL PRVL PRVL PRVL PRVL PRVL PRVL PRVL PRVL
VIS 10 >6 >6 >6 >6 >6 >6 >6 >6 >6 >6 >6 >6 >6
CIG -- -- -- -- -- -- -- -- -- -- -- -- -- --
Cover SCT SCT SCT SCT SCT SCT SCT SCT FEW FEW FEW FEW FEW FEW
FltCat VFR VFR VFR VFR VFR VFR VFR VFR VFR VFR VFR VFR VFR VFR
WX -- -- -- -- -- -- -- -- -- -- -- -- -- --
WDir 210 200 190 190 190 190 190 190 210 210 210 210 210 210
WSpd 13 8 12 12 12 12 12 12 18 18 18 18 18 18
WGst 21 -- 19 19 19 19 19 19 29 29 29 29 29 29
Raw TAF
KMDW 201750Z 2018/2124 20008KT P6SM SCT050
  FM202100 19012G19KT P6SM SCT050 SCT150
  FM210300 21018G29KT P6SM FEW050 FEW250 WS015/21050KT
  TEMPO 2109/2111 -SHRA
  FM211100 24017G26KT P6SM SCT020 BKN070
  FM211500 28016G25KT P6SM SCT025 BKN050
  FM212100 31015G23KT P6SM SCT050 BKN120


Raw METAR
KMDW 201953Z 21013G21KT 10SM SCT050 SCT140 35/21 A2985 RMK AO2 SLP097 T03500211
KMDW 201853Z 23010G17KT 10SM FEW044 FEW250 33/22 A2989 RMK AO2 SLP108 T03330217
KMDW 201753Z 21010G17KT 9SM FEW040 BKN250 32/22 A2992 RMK AO2 SLP119 T03170222 10322 20217 58022
KMDW 201653Z 20007KT 8SM FEW030 BKN250 30/22 A2994 RMK AO2 SLP129 T03000222

METAR Board
Radar Display
Forecast Discussion
For situational awareness. Not to be used for flight planning purposes.